createdAt,value
2018-01-10T00:01:51.399Z,24.50
2018-01-10T00:04:56.461Z,25.17
2018-01-10T00:08:01.944Z,23.83
2018-01-10T00:11:08.198Z,24.13
2018-01-10T00:14:14.375Z,24.00
2018-01-10T00:17:19.313Z,26.40
2018-01-10T00:20:24.188Z,24.10
2018-01-10T00:23:29.777Z,23.90
2018-01-10T00:26:35.210Z,23.67
2018-01-10T00:29:40.541Z,23.97
2018-01-10T00:32:45.409Z,18.97
2018-01-10T00:35:51.070Z,25.17
2018-01-10T00:38:58.360Z,25.73
2018-01-10T00:42:03.418Z,24.60
2018-01-10T00:45:09.869Z,25.90
2018-01-10T00:48:15.426Z,24.67
2018-01-10T00:51:22.170Z,22.53
2018-01-10T00:54:27.497Z,22.50
2018-01-10T00:57:33.098Z,23.17
2018-01-10T01:00:38.550Z,23.07
2018-01-10T01:03:44.669Z,21.93
2018-01-10T01:06:49.680Z,21.23
2018-01-10T01:09:55.194Z,20.87
2018-01-10T01:13:00.914Z,20.17
2018-01-10T01:16:06.267Z,19.67
2018-01-10T01:19:11.444Z,18.40
2018-01-10T01:22:16.458Z,17.40
2018-01-10T01:25:22.867Z,19.10
2018-01-10T01:28:27.578Z,18.00
2018-01-10T01:31:33.185Z,16.83
2018-01-10T01:34:39.561Z,17.93
2018-01-10T01:37:44.817Z,15.30
2018-01-10T01:40:50.186Z,15.10
2018-01-10T01:43:56.646Z,14.50
2018-01-10T01:47:01.692Z,13.70
2018-01-10T01:50:06.864Z,14.00
2018-01-10T01:53:11.793Z,15.17
2018-01-10T01:56:17.274Z,16.87
2018-01-10T01:59:22.756Z,17.53
2018-01-10T02:02:28.429Z,16.40
2018-01-10T02:05:34.839Z,15.90
2018-01-10T02:08:41.090Z,14.90
2018-01-10T02:11:46.065Z,15.40
2018-01-10T02:14:51.762Z,15.80
2018-01-10T02:17:57.269Z,15.03
2018-01-10T02:21:02.618Z,16.77
2018-01-10T02:24:08.478Z,20.57
2018-01-10T02:27:13.906Z,16.53
2018-01-10T02:30:19.922Z,17.50
2018-01-10T02:33:25.202Z,16.20
2018-01-10T02:36:30.186Z,14.80
2018-01-10T02:39:35.725Z,14.40
2018-01-10T02:42:52.978Z,12.63
2018-01-10T02:45:58.841Z,14.70
2018-01-10T02:49:04.602Z,14.13
2018-01-10T02:52:10.782Z,15.53
2018-01-10T02:55:16.053Z,15.60
2018-01-10T02:58:21.713Z,15.60
2018-01-10T03:01:26.545Z,15.93
2018-01-10T03:04:31.322Z,16.17
2018-01-10T03:07:36.361Z,16.23
2018-01-10T03:10:41.894Z,15.80
2018-01-10T03:13:47.395Z,15.60
2018-01-10T03:16:53.049Z,14.20
2018-01-10T03:19:58.801Z,15.70
2018-01-10T03:23:04.627Z,15.03
2018-01-10T03:26:10.577Z,14.87
2018-01-10T03:29:16.030Z,14.33
2018-01-10T03:32:21.790Z,14.40
2018-01-10T03:35:27.495Z,15.20
2018-01-10T03:38:33.541Z,14.77
2018-01-10T03:41:39.004Z,15.10
2018-01-10T03:44:45.082Z,16.87
2018-01-10T03:47:50.871Z,16.40
2018-01-10T03:50:57.414Z,15.83
2018-01-10T03:54:03.591Z,16.07
2018-01-10T03:57:09.002Z,16.10
2018-01-10T04:00:13.662Z,16.63
2018-01-10T04:03:18.935Z,16.20
2018-01-10T04:06:24.230Z,16.20
2018-01-10T04:09:30.739Z,16.17
2018-01-10T04:12:36.858Z,16.80
2018-01-10T04:15:43.254Z,18.20
2018-01-10T04:18:49.841Z,16.27
2018-01-10T04:21:56.073Z,18.30
2018-01-10T04:25:00.986Z,18.53
2018-01-10T04:28:06.524Z,21.90
2018-01-10T04:31:12.276Z,22.50
2018-01-10T04:34:17.951Z,20.77
2018-01-10T04:37:23.406Z,18.97
2018-01-10T04:40:28.801Z,18.37
2018-01-10T04:43:34.726Z,18.20
2018-01-10T04:46:40.285Z,16.90
2018-01-10T04:49:45.779Z,17.23
2018-01-10T04:52:51.515Z,17.90
2018-01-10T04:55:57.866Z,16.70
2018-01-10T04:59:03.789Z,17.43
2018-01-10T05:02:09.640Z,18.40
2018-01-10T05:05:14.789Z,16.70
2018-01-10T05:08:20.245Z,16.90
2018-01-10T05:11:25.152Z,18.03
2018-01-10T05:14:30.284Z,16.57
2018-01-10T05:17:36.445Z,15.30
2018-01-10T05:20:42.702Z,16.80
2018-01-10T05:23:47.998Z,17.20
2018-01-10T05:26:55.069Z,16.23
2018-01-10T05:30:00.061Z,16.30
2018-01-10T05:33:05.725Z,18.47
2018-01-10T05:36:11.585Z,18.57
2018-01-10T05:39:16.658Z,18.00
2018-01-10T05:42:22.769Z,18.27
2018-01-10T05:45:28.558Z,19.40
2018-01-10T05:48:34.471Z,18.83
2018-01-10T05:51:39.934Z,19.03
2018-01-10T05:54:45.424Z,19.80
2018-01-10T05:57:50.530Z,20.40
2018-01-10T06:00:57.871Z,19.97
2018-01-10T06:04:03.011Z,17.73
2018-01-10T06:07:08.678Z,18.57
2018-01-10T06:10:15.093Z,18.73
2018-01-10T06:13:20.041Z,17.67
2018-01-10T06:16:26.294Z,18.40
2018-01-10T06:19:31.444Z,17.20
2018-01-10T06:22:36.877Z,16.60
2018-01-10T06:25:41.954Z,17.13
2018-01-10T06:28:47.058Z,17.07
2018-01-10T06:31:52.109Z,15.97
2018-01-10T06:34:57.340Z,15.47
2018-01-10T06:38:03.076Z,16.00
2018-01-10T06:41:08.270Z,17.97
2018-01-10T06:44:13.566Z,18.00
2018-01-10T06:47:19.269Z,17.77
2018-01-10T06:50:24.554Z,17.67
2018-01-10T06:53:30.049Z,16.70
2018-01-10T06:56:35.187Z,18.40
2018-01-10T06:59:40.211Z,17.30
2018-01-10T07:02:45.282Z,17.13
2018-01-10T07:05:50.857Z,15.93
2018-01-10T07:08:55.830Z,16.77
2018-01-10T07:12:00.869Z,17.23
2018-01-10T07:15:09.697Z,19.27
2018-01-10T07:18:16.105Z,17.37
2018-01-10T07:21:21.119Z,18.20
2018-01-10T07:24:26.677Z,21.90
2018-01-10T07:27:32.726Z,34.70
2018-01-10T07:30:38.142Z,35.97
2018-01-10T07:33:43.455Z,23.37
2018-01-10T07:36:48.635Z,20.30
2018-01-10T07:39:54.036Z,22.03
2018-01-10T07:42:58.867Z,20.87
2018-01-10T07:46:03.794Z,19.27
2018-01-10T07:49:08.941Z,19.00
2018-01-10T07:52:14.526Z,23.03
2018-01-10T07:55:20.536Z,20.80
2018-01-10T07:58:25.356Z,19.70
2018-01-10T08:01:31.221Z,23.20
2018-01-10T08:04:37.028Z,20.53
2018-01-10T08:07:42.262Z,19.00
2018-01-10T08:10:47.979Z,18.97
2018-01-10T08:13:53.435Z,24.40
2018-01-10T08:16:59.482Z,25.53
2018-01-10T08:20:04.561Z,24.57
2018-01-10T08:23:09.662Z,24.30
2018-01-10T08:26:15.450Z,22.03
2018-01-10T08:29:20.521Z,21.97
2018-01-10T08:32:26.842Z,17.20
2018-01-10T08:35:33.325Z,16.50
2018-01-10T08:38:38.713Z,16.13
2018-01-10T08:41:45.206Z,15.57
2018-01-10T08:44:50.269Z,16.33
2018-01-10T08:47:56.437Z,19.83
2018-01-10T08:51:01.814Z,15.60
2018-01-10T08:54:07.349Z,15.33
2018-01-10T08:57:12.686Z,15.20
2018-01-10T09:00:18.206Z,15.73
2018-01-10T09:03:23.993Z,14.50
2018-01-10T09:06:29.733Z,13.47
2018-01-10T09:09:35.694Z,13.80
2018-01-10T09:12:41.062Z,14.97
2018-01-10T09:15:47.364Z,13.43
2018-01-10T09:18:52.606Z,12.47
2018-01-10T09:21:59.117Z,12.60
2018-01-10T09:25:04.306Z,14.10
2018-01-10T09:28:09.517Z,13.80
2018-01-10T09:31:14.578Z,12.40
2018-01-10T09:34:19.877Z,12.30
2018-01-10T09:37:24.798Z,11.67
2018-01-10T09:40:30.533Z,10.70
2018-01-10T09:43:35.342Z,10.60
2018-01-10T09:46:40.857Z,11.17
2018-01-10T09:49:46.910Z,10.33
2018-01-10T09:52:52.921Z,9.23
2018-01-10T09:55:58.428Z,9.30
2018-01-10T09:59:03.905Z,8.73
2018-01-10T10:02:08.804Z,9.23
2018-01-10T10:05:13.645Z,8.97
2018-01-10T10:08:19.510Z,9.73
2018-01-10T10:11:24.778Z,8.50
2018-01-10T10:14:29.946Z,6.50
2018-01-10T10:17:36.198Z,6.77
2018-01-10T10:20:41.085Z,6.20
2018-01-10T10:23:46.731Z,5.73
2018-01-10T10:26:52.286Z,6.10
2018-01-10T10:29:58.309Z,5.30
2018-01-10T10:33:07.186Z,4.30
2018-01-10T10:36:12.814Z,5.60
2018-01-10T10:39:18.346Z,6.90
2018-01-10T10:42:24.337Z,5.13
2018-01-10T10:45:29.821Z,5.33
2018-01-10T10:48:36.386Z,6.40
2018-01-10T10:51:42.142Z,6.10
2018-01-10T10:54:47.720Z,7.83
2018-01-10T10:57:52.862Z,7.90
2018-01-10T11:00:57.718Z,8.30
2018-01-10T11:04:02.881Z,9.83
2018-01-10T11:07:08.393Z,10.70
2018-01-10T11:10:13.375Z,10.10
2018-01-10T11:13:18.350Z,10.90
2018-01-10T11:16:24.147Z,10.03
2018-01-10T11:19:29.381Z,11.30
2018-01-10T11:22:34.717Z,10.17
2018-01-10T11:25:39.701Z,10.03
2018-01-10T11:28:49.693Z,8.93
2018-01-10T11:31:55.350Z,6.50
2018-01-10T11:35:00.452Z,5.70
2018-01-10T11:38:05.575Z,5.33
2018-01-10T11:41:10.503Z,5.40
2018-01-10T11:44:16.346Z,5.57
2018-01-10T11:47:22.306Z,5.83
2018-01-10T11:50:27.917Z,5.50
2018-01-10T11:53:33.384Z,5.67
2018-01-10T11:56:38.890Z,4.87
2018-01-10T11:59:45.189Z,4.10
2018-01-10T12:02:51.369Z,4.83
2018-01-10T12:05:56.242Z,4.90
2018-01-10T12:09:01.115Z,4.73
2018-01-10T12:12:06.386Z,5.00
2018-01-10T12:15:12.113Z,3.77
2018-01-10T12:18:17.661Z,4.03
2018-01-10T12:21:23.493Z,4.00
2018-01-10T12:24:29.048Z,4.17
2018-01-10T12:27:34.888Z,3.63
2018-01-10T12:30:40.145Z,4.00
2018-01-10T12:33:45.305Z,4.03
2018-01-10T12:36:51.297Z,3.43
2018-01-10T12:39:56.945Z,4.53
2018-01-10T12:43:02.554Z,4.50
2018-01-10T12:46:07.570Z,5.57
2018-01-10T12:49:13.198Z,6.50
2018-01-10T12:52:19.247Z,5.40
2018-01-10T12:55:24.141Z,5.20
2018-01-10T12:58:29.949Z,5.13
2018-01-10T13:01:35.377Z,5.57
2018-01-10T13:04:40.645Z,5.03
2018-01-10T13:07:46.005Z,5.00
2018-01-10T13:10:52.149Z,5.70
2018-01-10T13:13:57.626Z,5.90
2018-01-10T13:17:04.376Z,5.30
2018-01-10T13:20:09.406Z,5.13
2018-01-10T13:23:14.864Z,4.90
2018-01-10T13:26:20.586Z,4.53
2018-01-10T13:29:25.561Z,5.23
2018-01-10T13:32:31.841Z,4.30
2018-01-10T13:35:38.360Z,5.30
2018-01-10T13:38:43.550Z,4.50
2018-01-10T13:41:48.434Z,5.77
2018-01-10T13:44:53.609Z,5.03
2018-01-10T13:47:59.685Z,4.77
2018-01-10T13:51:05.327Z,4.80
2018-01-10T13:54:12.120Z,5.33
2018-01-10T13:57:20.854Z,5.60
2018-01-10T14:00:26.094Z,5.80
2018-01-10T14:03:31.123Z,5.60
2018-01-10T14:06:36.086Z,6.70
2018-01-10T14:09:42.023Z,6.90
2018-01-10T14:12:47.250Z,7.63
2018-01-10T14:15:52.451Z,5.83
2018-01-10T14:18:57.683Z,5.10
2018-01-10T14:22:03.352Z,4.83
2018-01-10T14:25:08.835Z,5.07
2018-01-10T14:28:14.103Z,6.10
2018-01-10T14:31:20.428Z,4.27
2018-01-10T14:34:26.135Z,3.77
2018-01-10T14:37:32.386Z,5.17
2018-01-10T14:40:38.902Z,3.80
2018-01-10T14:43:46.650Z,3.80
2018-01-10T14:46:52.594Z,3.30
2018-01-10T14:49:58.070Z,3.57
2018-01-10T14:53:03.394Z,3.27
2018-01-10T14:56:08.630Z,3.00
2018-01-10T14:59:13.802Z,3.53
2018-01-10T15:02:19.338Z,3.23
2018-01-10T15:05:25.134Z,2.90
2018-01-10T15:08:31.282Z,2.67
2018-01-10T15:11:36.930Z,2.50
2018-01-10T15:14:42.633Z,3.07
2018-01-10T15:17:48.746Z,2.63
2018-01-10T15:20:54.334Z,2.77
2018-01-10T15:23:59.782Z,2.70
2018-01-10T15:27:05.185Z,2.87
2018-01-10T15:30:11.114Z,3.17
2018-01-10T15:33:16.715Z,2.80
2018-01-10T15:36:21.602Z,3.70
2018-01-10T15:39:27.334Z,3.43
2018-01-10T15:42:32.526Z,4.00
2018-01-10T15:45:38.136Z,6.40
2018-01-10T15:48:44.022Z,3.27
2018-01-10T15:51:49.465Z,5.70
2018-01-10T15:54:54.734Z,2.77
2018-01-10T15:57:59.811Z,2.30
2018-01-10T16:01:05.356Z,2.80
2018-01-10T16:04:10.914Z,1.60
2018-01-10T16:07:16.486Z,2.27
2018-01-10T16:10:21.418Z,2.30
2018-01-10T16:13:27.107Z,2.23
2018-01-10T16:16:33.274Z,1.63
2018-01-10T16:19:39.082Z,1.83
2018-01-10T16:22:44.305Z,1.93
2018-01-10T16:25:50.981Z,2.20
2018-01-10T16:28:55.812Z,1.70
2018-01-10T16:32:02.226Z,1.57
2018-01-10T16:35:07.587Z,1.70
2018-01-10T16:38:13.881Z,1.63
2018-01-10T16:41:20.390Z,1.60
2018-01-10T16:44:25.452Z,1.73
2018-01-10T16:47:32.209Z,1.37
2018-01-10T16:50:37.074Z,2.30
2018-01-10T16:53:44.382Z,4.87
2018-01-10T16:56:49.413Z,2.80
2018-01-10T16:59:54.985Z,1.83
2018-01-10T17:03:01.630Z,3.40
2018-01-10T17:06:07.536Z,2.30
2018-01-10T17:09:13.421Z,2.30
2018-01-10T17:12:18.318Z,2.97
2018-01-10T17:15:23.897Z,2.50
2018-01-10T17:18:30.449Z,2.30
2018-01-10T17:21:35.688Z,1.87
2018-01-10T17:24:41.048Z,2.33
2018-01-10T17:27:46.951Z,1.90
2018-01-10T17:30:52.590Z,1.80
2018-01-10T17:33:58.464Z,2.20
2018-01-10T17:37:04.317Z,2.20
2018-01-10T17:40:09.346Z,1.90
2018-01-10T17:43:14.679Z,2.00
2018-01-10T17:46:20.659Z,2.77
2018-01-10T17:49:26.049Z,2.07
2018-01-10T17:52:31.649Z,2.57
2018-01-10T17:55:37.700Z,4.17
2018-01-10T17:58:42.906Z,3.80
2018-01-10T18:01:48.672Z,3.07
2018-01-10T18:04:53.766Z,3.00
2018-01-10T18:07:59.455Z,3.00
2018-01-10T18:11:04.626Z,2.80
2018-01-10T18:14:09.989Z,2.90
2018-01-10T18:17:15.517Z,4.23
2018-01-10T18:20:20.685Z,2.83
2018-01-10T18:23:26.389Z,3.27
2018-01-10T18:26:31.847Z,3.13
2018-01-10T18:29:37.609Z,14.30
2018-01-10T18:32:43.166Z,33.07
2018-01-10T18:35:48.314Z,41.00
2018-01-10T18:38:54.230Z,6.43
2018-01-10T18:41:59.066Z,4.90
2018-01-10T18:45:03.962Z,5.27
2018-01-10T18:48:09.283Z,5.60
2018-01-10T18:51:15.777Z,5.17
2018-01-10T18:54:21.598Z,7.97
2018-01-10T18:57:27.083Z,18.70
2018-01-10T19:00:32.423Z,19.30
2018-01-10T19:03:37.805Z,12.17
2018-01-10T19:06:43.685Z,7.90
2018-01-10T19:09:49.162Z,2.67
2018-01-10T19:12:54.485Z,8.47
2018-01-10T19:15:59.411Z,5.03
2018-01-10T19:19:04.799Z,3.73
2018-01-10T19:22:09.793Z,3.47
2018-01-10T19:25:15.399Z,3.27
2018-01-10T19:28:20.518Z,3.57
2018-01-10T19:31:25.858Z,2.83
2018-01-10T19:34:31.724Z,3.10
2018-01-10T19:37:36.742Z,3.10
2018-01-10T19:40:42.463Z,3.90
2018-01-10T19:43:47.969Z,3.33
2018-01-10T19:46:52.662Z,3.50
2018-01-10T19:49:58.543Z,4.97
2018-01-10T19:53:03.914Z,5.47
2018-01-10T19:56:09.551Z,8.20
2018-01-10T19:59:14.990Z,5.00
2018-01-10T20:02:20.590Z,10.97
2018-01-10T20:05:26.287Z,8.30
2018-01-10T20:08:31.242Z,15.67
2018-01-10T20:11:37.611Z,20.47
2018-01-10T20:14:43.550Z,7.23
2018-01-10T20:17:48.630Z,6.30
2018-01-10T20:20:54.009Z,4.50
2018-01-10T20:23:59.590Z,3.10
2018-01-10T20:27:04.666Z,3.70
2018-01-10T20:30:09.633Z,3.53
2018-01-10T20:33:14.990Z,3.20
2018-01-10T20:36:21.210Z,3.13
2018-01-10T20:39:26.018Z,3.60
2018-01-10T20:42:31.305Z,4.30
2018-01-10T20:45:36.573Z,4.10
2018-01-10T20:48:42.191Z,4.33
2018-01-10T20:51:47.302Z,3.93
2018-01-10T20:54:52.216Z,3.70
2018-01-10T20:57:57.218Z,4.60
2018-01-10T21:01:02.925Z,3.70
2018-01-10T21:04:08.231Z,3.10
2018-01-10T21:07:14.177Z,3.13
2018-01-10T21:10:19.671Z,4.90
2018-01-10T21:13:25.690Z,5.80
2018-01-10T21:16:30.681Z,6.53
2018-01-10T21:19:36.078Z,6.40
2018-01-10T21:22:42.690Z,6.87
2018-01-10T21:25:48.281Z,6.47
2018-01-10T21:28:55.363Z,5.60
2018-01-10T21:32:00.999Z,4.33
2018-01-10T21:35:06.338Z,4.10
2018-01-10T21:38:11.345Z,4.60
2018-01-10T21:41:16.446Z,4.90
2018-01-10T21:44:22.527Z,5.43
2018-01-10T21:47:27.437Z,4.80
2018-01-10T21:50:32.340Z,5.20
2018-01-10T21:53:37.185Z,5.33
2018-01-10T21:56:43.336Z,4.70
2018-01-10T21:59:48.890Z,5.03
2018-01-10T22:02:53.843Z,4.70
2018-01-10T22:05:58.894Z,5.30
2018-01-10T22:09:04.261Z,5.63
2018-01-10T22:12:10.134Z,4.87
2018-01-10T22:15:15.066Z,4.70
2018-01-10T22:18:20.041Z,4.57
2018-01-10T22:21:25.514Z,4.53
2018-01-10T22:24:30.341Z,4.43
2018-01-10T22:27:47.274Z,4.90
2018-01-10T22:30:53.658Z,4.87
2018-01-10T22:33:59.242Z,4.83
2018-01-10T22:37:05.087Z,4.53
2018-01-10T22:40:09.929Z,5.77
2018-01-10T22:43:15.495Z,4.97
2018-01-10T22:46:20.886Z,6.80
2018-01-10T22:49:30.793Z,6.37
2018-01-10T22:52:37.218Z,6.83
2018-01-10T22:55:42.948Z,4.20
2018-01-10T22:58:49.238Z,6.50
2018-01-10T23:01:55.626Z,7.77
2018-01-10T23:05:02.094Z,9.80
2018-01-10T23:08:07.223Z,8.17
2018-01-10T23:11:12.857Z,8.97
2018-01-10T23:14:18.322Z,9.50
2018-01-10T23:17:23.193Z,8.80
2018-01-10T23:20:28.784Z,8.73
2018-01-10T23:23:34.622Z,8.27
2018-01-10T23:26:45.907Z,8.60
2018-01-10T23:29:51.026Z,8.57
2018-01-10T23:32:55.921Z,9.10
2018-01-10T23:36:03.515Z,8.70
2018-01-10T23:39:09.522Z,7.87
2018-01-10T23:42:14.970Z,7.20
2018-01-10T23:45:19.873Z,6.70
2018-01-10T23:48:25.114Z,7.23
2018-01-10T23:51:30.142Z,7.40
2018-01-10T23:54:35.661Z,6.60
2018-01-10T23:57:41.106Z,6.97
